Terminal Aerodrome Forecast
Issued by NWS

Home | Current Version | Previous Version | Text Only | Print | Product List | Glossary On
Versions: 1 2 3 4 5 6 7 8 9 10 11 12 13
000
FTUS45 KCYS 232320
TAFAIA
TAF
KAIA 232320Z 2400/2424 10007KT P6SM OVC090
     FM240500 14007KT P6SM VCSH OVC045
     FM240800 15006KT 2SM -SN BR OVC008
     FM241000 16004KT 1SM -SN BR OVC012
     FM241300 19005KT P6SM VCSH BKN015
     FM241800 29018KT P6SM SCT250=

USA.gov is the U.S. government's official web portal to all federal, state and local government web resources and services.